Time;durP1;ratioP1;P1;durP2;ratioP2;P2;SDS_P1;SDS_P2;PMS_P1;PMS_P2;Temp;Humidity;BMP_temperature;BMP_pressure;BME280_temperature;BME280_humidity;BME280_pressure;Samples;Min_cycle;Max_cycle;Signal;HPM_P1;HPM_P2
2022/04/25 00:01:21;;;;;;;;;;;;;;;21.98;26.15;97331.22;4988702;28;1735;-78
2022/04/25 00:03:46;;;;;;;;;;;;;;;21.53;27.09;97334.56;4999323;28;1015;-78
2022/04/25 00:06:12;;;;;;;;;;;;;;;21.17;27.42;97330.16;4993217;28;981;-78
2022/04/25 00:08:37;;;;;;;;;;;;;;;20.95;28.03;97334.97;4993251;28;983;-77
2022/04/25 00:11:03;;;;;;;;;;;;;;;21.26;27.53;97338.72;5052371;28;962;-78
2022/04/25 00:13:28;;;;;;;;;;;;;;;21.84;26.50;97331.75;5052448;28;1914;-78
2022/04/25 00:15:54;;;;;;;;;;;;;;;21.98;26.11;97341.78;5035734;28;1800;-78
2022/04/25 00:18:20;;;;;;;;;;;;;;;21.31;27.02;97346.66;5051465;28;1758;-78
2022/04/25 00:20:45;;;;;;;;;;;;;;;21.07;27.37;97337.75;5052329;28;1012;-78
2022/04/25 00:23:11;;;;;;;;;;;;;;;21.13;27.39;97337.16;5052422;28;1309;-78
2022/04/25 00:25:36;;;;;;;;;;;;;;;21.14;27.80;97330.25;5068330;28;914;-78
2022/04/25 00:28:02;;;;;;;;;;;;;;;21.69;26.94;97331.50;5075582;28;865;-78
2022/04/25 00:30:30;;;;;;;;;;;;;;;21.95;26.33;97331.34;5078208;28;888;-78
2022/04/25 00:32:56;;;;;;;;;;;;;;;21.61;26.58;97335.88;5078319;28;1906;-78
2022/04/25 00:35:22;;;;;;;;;;;;;;;21.20;27.45;97329.25;5078617;28;921;-78
2022/04/25 00:37:47;;;;;;;;;;;;;;;20.93;27.87;97323.31;5078321;28;866;-78
2022/04/25 00:40:13;;;;;;;;;;;;;;;20.90;27.84;97325.03;5078175;28;901;-78
2022/04/25 00:42:38;;;;;;;;;;;;;;;21.18;27.93;97320.41;5078693;28;956;-78
2022/04/25 00:45:04;;;;;;;;;;;;;;;21.73;26.60;97320.84;5099632;28;1696;-78
2022/04/25 00:47:29;;;;;;;;;;;;;;;22.05;26.34;97315.97;5058055;28;924;-78
2022/04/25 00:49:55;;;;;;;;;;;;;;;22.12;26.19;97318.56;5090043;28;1726;-78
2022/04/25 00:52:20;;;;;;;;;;;;;;;21.72;26.41;97310.78;5058298;28;1898;-78
2022/04/25 00:54:46;;;;;;;;;;;;;;;21.25;27.10;97317.34;5058186;28;895;-79
2022/04/25 00:57:11;;;;;;;;;;;;;;;21.04;27.75;97315.28;5090516;28;1142;-78
2022/04/25 00:59:37;;;;;;;;;;;;;;;20.92;28.02;97314.03;5061987;28;1623;-77
2022/04/25 01:02:03;;;;;;;;;;;;;;;20.89;28.02;97314.19;5077675;28;1682;-78
2022/04/25 01:04:29;;;;;;;;;;;;;;;21.08;27.91;97315.91;5075854;28;1761;-77
2022/04/25 01:06:54;;;;;;;;;;;;;;;21.66;26.76;97306.97;5077889;28;878;-78
2022/04/25 01:09:20;;;;;;;;;;;;;;;21.89;26.48;97300.00;5077455;28;913;-78
2022/04/25 01:11:45;;;;;;;;;;;;;;;21.72;26.58;97302.28;5077428;28;841;-78
2022/04/25 01:14:11;;;;;;;;;;;;;;;21.33;27.29;97298.88;5077169;28;1898;-78
2022/04/25 01:16:37;;;;;;;;;;;;;;;21.06;27.56;97302.25;5077701;28;790;-77
2022/04/25 01:19:02;;;;;;;;;;;;;;;20.95;27.94;97301.03;5077059;28;1713;-77
2022/04/25 01:21:28;;;;;;;;;;;;;;;21.65;27.03;97299.69;5077039;28;1717;-78
2022/04/25 01:29:21;;;;;;;;;;;;;;;21.22;27.45;97295.59;5077451;28;871;-78
2022/04/25 01:31:47;;;;;;;;;;;;;;;21.14;27.59;97296.31;5106936;28;1630;-78
2022/04/25 01:34:12;;;;;;;;;;;;;;;21.14;27.69;97291.47;5057363;28;1906;-77
2022/04/25 01:36:37;;;;;;;;;;;;;;;21.56;27.12;97286.31;5057695;28;958;-77
2022/04/25 01:39:03;;;;;;;;;;;;;;;21.98;26.36;97285.13;5056814;28;947;-78
2022/04/25 01:41:28;;;;;;;;;;;;;;;21.99;26.18;97287.47;5057118;28;851;-78
2022/04/25 01:43:54;;;;;;;;;;;;;;;21.35;27.32;97277.78;5057078;28;897;-78
2022/04/25 01:46:19;;;;;;;;;;;;;;;21.02;27.79;97266.84;5056820;28;1547;-77
2022/04/25 01:48:45;;;;;;;;;;;;;;;20.85;28.05;97268.28;5057274;28;744;-78
2022/04/25 01:51:10;;;;;;;;;;;;;;;21.47;27.21;97263.59;5071548;28;936;-77
2022/04/25 01:53:36;;;;;;;;;;;;;;;21.79;26.62;97267.22;5089353;28;1917;-78
2022/04/25 01:56:01;;;;;;;;;;;;;;;22.04;26.52;97258.53;5057484;28;985;-78
2022/04/25 01:58:27;;;;;;;;;;;;;;;21.48;26.89;97253.84;5056653;28;919;-77
2022/04/25 02:00:53;;;;;;;;;;;;;;;21.13;27.43;97260.78;5085547;28;1662;-77
2022/04/25 02:03:19;;;;;;;;;;;;;;;21.07;27.68;97252.91;5076773;28;877;-78
2022/04/25 02:05:44;;;;;;;;;;;;;;;21.21;27.71;97257.25;5077225;28;924;-77
2022/04/25 02:08:09;;;;;;;;;;;;;;;21.65;27.03;97254.41;5077126;28;946;-78
2022/04/25 02:10:35;;;;;;;;;;;;;;;22.09;26.07;97252.25;5076583;28;870;-78
2022/04/25 02:13:01;;;;;;;;;;;;;;;21.39;27.29;97250.94;5076594;28;1917;-78
2022/04/25 02:15:26;;;;;;;;;;;;;;;21.10;27.67;97256.84;5076244;28;1706;-78
2022/04/25 02:17:52;;;;;;;;;;;;;;;21.10;27.46;97251.19;5076721;28;847;-78
2022/04/25 02:20:17;;;;;;;;;;;;;;;21.20;27.72;97250.03;5077034;28;1034;-78
2022/04/25 02:22:43;;;;;;;;;;;;;;;21.72;26.85;97244.88;5076181;28;1305;-77
2022/04/25 02:25:09;;;;;;;;;;;;;;;22.05;26.23;97245.16;5076160;28;921;-78
2022/04/25 02:27:34;;;;;;;;;;;;;;;21.76;26.49;97251.97;5065969;28;1650;-78
2022/04/25 02:30:00;;;;;;;;;;;;;;;21.21;27.47;97248.75;5075998;28;1650;-78
2022/04/25 02:32:27;;;;;;;;;;;;;;;21.01;27.75;97242.63;5075793;28;1917;-78
2022/04/25 02:34:54;;;;;;;;;;;;;;;20.92;27.61;97257.47;5108391;28;809;-78
2022/04/25 02:37:22;;;;;;;;;;;;;;;21.20;27.79;97233.06;5107241;28;929;-78
2022/04/25 02:39:48;;;;;;;;;;;;;;;21.79;26.85;97245.38;5065538;28;1666;-78
2022/04/25 02:42:13;;;;;;;;;;;;;;;21.86;26.53;97238.63;5056131;28;904;-77
2022/04/25 02:44:39;;;;;;;;;;;;;;;21.57;26.97;97244.63;5056268;28;867;-78
2022/04/25 02:47:04;;;;;;;;;;;;;;;21.14;27.94;97251.88;5070345;28;950;-78
2022/04/25 02:49:30;;;;;;;;;;;;;;;21.11;27.70;97247.13;5056328;28;765;-78
2022/04/25 02:51:55;;;;;;;;;;;;;;;21.13;28.03;97246.66;5055498;28;850;-78
2022/04/25 02:54:21;;;;;;;;;;;;;;;21.71;26.82;97244.09;5063693;28;1976;-78
2022/04/25 02:56:47;;;;;;;;;;;;;;;22.10;26.28;97258.72;5086932;28;913;-78
2022/04/25 02:59:12;;;;;;;;;;;;;;;21.62;26.65;97249.69;5054470;28;912;-78
2022/04/25 03:01:38;;;;;;;;;;;;;;;21.28;27.46;97259.81;5074836;28;1824;-78
2022/04/25 03:04:03;;;;;;;;;;;;;;;21.00;27.83;97253.16;5107437;28;949;-78
2022/04/25 03:06:29;;;;;;;;;;;;;;;21.01;27.96;97243.44;5075607;28;984;-78
2022/04/25 03:08:54;;;;;;;;;;;;;;;21.33;27.72;97253.59;5075335;28;894;-77
2022/04/25 03:11:20;;;;;;;;;;;;;;;21.85;26.80;97237.84;5075965;28;775;-78
2022/04/25 03:13:45;;;;;;;;;;;;;;;22.03;26.64;97253.34;5075767;28;1914;-78
2022/04/25 03:16:11;;;;;;;;;;;;;;;21.32;27.49;97246.34;5057787;28;1666;-78
2022/04/25 03:18:36;;;;;;;;;;;;;;;21.14;27.92;97246.22;5055352;28;943;-78
2022/04/25 03:21:02;;;;;;;;;;;;;;;20.97;27.92;97247.63;5087508;28;861;-78
2022/04/25 03:23:27;;;;;;;;;;;;;;;21.72;27.14;97251.31;5070683;28;1048;-78
2022/04/25 03:25:53;;;;;;;;;;;;;;;21.95;26.73;97252.03;5055394;28;851;-78
2022/04/25 03:28:19;;;;;;;;;;;;;;;21.63;26.76;97259.75;5087698;28;991;-78
2022/04/25 03:30:44;;;;;;;;;;;;;;;21.26;27.38;97251.00;5055840;28;763;-78
2022/04/25 03:33:12;;;;;;;;;;;;;;;21.02;27.53;97255.53;5074799;28;1980;-78
2022/04/25 03:35:38;;;;;;;;;;;;;;;21.17;28.05;97245.28;5107595;28;846;-78
2022/04/25 03:38:06;;;;;;;;;;;;;;;21.73;27.01;97246.44;5074475;28;1686;-77
2022/04/25 03:40:31;;;;;;;;;;;;;;;22.06;26.43;97247.53;5055191;28;845;-78
2022/04/25 03:42:57;;;;;;;;;;;;;;;21.58;27.11;97246.19;5087542;28;913;-79
2022/04/25 03:45:22;;;;;;;;;;;;;;;21.21;27.74;97245.16;5055203;28;846;-77
2022/04/25 03:47:48;;;;;;;;;;;;;;;20.99;28.02;97251.59;5055693;28;871;-78
2022/04/25 03:50:14;;;;;;;;;;;;;;;20.98;27.77;97250.00;5055320;28;1111;-78
2022/04/25 03:52:40;;;;;;;;;;;;;;;21.55;27.53;97247.13;5055146;28;1906;-78
2022/04/25 03:57:54;;;;;;;;;;;;;;;21.69;27.01;97240.91;5075131;28;920;-78
2022/04/25 04:00:20;;;;;;;;;;;;;;;21.16;27.92;97240.88;5075396;28;957;-78
2022/04/25 04:02:45;;;;;;;;;;;;;;;21.10;28.09;97245.53;5115045;28;1040;-77
2022/04/25 04:05:11;;;;;;;;;;;;;;;21.10;27.93;97242.72;5116503;28;1741;-77
2022/04/25 04:07:36;;;;;;;;;;;;;;;21.17;28.16;97239.63;5117343;28;962;-78
2022/04/25 04:10:02;;;;;;;;;;;;;;;21.88;27.07;97238.19;5117301;28;911;-78
2022/04/25 04:12:31;;;;;;;;;;;;;;;21.94;26.76;97239.13;5117417;28;1992;-78
2022/04/25 04:14:56;;;;;;;;;;;;;;;21.35;27.79;97243.84;5117061;28;997;-77
2022/04/25 04:17:22;;;;;;;;;;;;;;;21.12;28.15;97243.03;5117286;28;960;-78
2022/04/25 04:19:47;;;;;;;;;;;;;;;20.99;28.15;97239.50;5116798;28;860;-77
2022/04/25 04:22:13;;;;;;;;;;;;;;;21.07;28.38;97243.63;5117115;28;1262;-77
2022/04/25 04:24:38;;;;;;;;;;;;;;;21.65;27.11;97245.91;5075800;28;1075;-78
2022/04/25 04:27:04;;;;;;;;;;;;;;;21.93;26.87;97237.56;5076052;28;945;-78
2022/04/25 04:29:33;;;;;;;;;;;;;;;21.50;27.18;97240.03;5055665;28;915;-78
2022/04/25 04:31:59;;;;;;;;;;;;;;;21.28;27.78;97240.00;5039226;28;973;-78
2022/04/25 04:34:24;;;;;;;;;;;;;;;20.70;28.02;97192.44;5040610;28;1975;-78
2022/04/25 04:36:50;;;;;;;;;;;;;;;21.02;28.32;97244.22;5035946;28;865;-78
2022/04/25 04:39:16;;;;;;;;;;;;;;;21.34;28.12;97243.06;5036150;28;915;-78
2022/04/25 04:41:41;;;;;;;;;;;;;;;21.78;27.23;97248.66;5035805;28;992;-78
2022/04/25 04:44:07;;;;;;;;;;;;;;;22.00;26.94;97249.38;5035704;28;886;-78
2022/04/25 04:46:32;;;;;;;;;;;;;;;21.39;27.53;97241.66;5035469;28;894;-78
2022/04/25 04:48:58;;;;;;;;;;;;;;;21.07;28.37;97243.63;5019215;28;870;-78
2022/04/25 04:51:23;;;;;;;;;;;;;;;21.06;28.46;97242.06;5035433;28;937;-78
2022/04/25 04:53:48;;;;;;;;;;;;;;;20.99;28.21;97240.28;5035430;28;1990;-78
2022/04/25 04:56:14;;;;;;;;;;;;;;;21.41;27.79;97236.34;5065683;28;894;-78
2022/04/25 04:58:39;;;;;;;;;;;;;;;21.91;26.87;97237.22;5074935;28;1069;-77
2022/04/25 05:01:05;;;;;;;;;;;;;;;22.03;26.70;97242.81;5075726;28;1030;-79
2022/04/25 05:03:31;;;;;;;;;;;;;;;21.33;27.99;97247.94;5058461;28;1354;-78
2022/04/25 05:05:56;;;;;;;;;;;;;;;21.10;28.14;97245.53;5075734;28;993;-78
2022/04/25 05:08:22;;;;;;;;;;;;;;;21.10;28.20;97251.19;5078206;28;782;-78
2022/04/25 05:10:48;;;;;;;;;;;;;;;21.04;28.27;97247.38;5078041;28;755;-77
2022/04/25 05:13:15;;;;;;;;;;;;;;;21.66;27.41;97253.19;5077593;28;1988;-78
2022/04/25 05:15:40;;;;;;;;;;;;;;;21.95;27.12;97257.72;5077448;28;875;-78
2022/04/25 05:18:06;;;;;;;;;;;;;;;21.58;27.32;97251.88;5077712;28;922;-78
2022/04/25 05:20:31;;;;;;;;;;;;;;;21.23;27.93;97260.41;5058492;28;1002;-78
2022/04/25 05:22:57;;;;;;;;;;;;;;;21.20;28.28;97254.91;5078162;28;1185;-78
2022/04/25 05:25:23;;;;;;;;;;;;;;;20.92;28.63;97259.53;5077448;28;1064;-78
2022/04/25 05:27:49;;;;;;;;;;;;;;;21.19;28.46;97254.09;5077398;28;960;-78
2022/04/25 05:30:14;;;;;;;;;;;;;;;21.65;27.51;97254.41;5108947;28;931;-78
2022/04/25 05:32:46;;;;;;;;;;;;;;;21.87;27.10;97259.25;5077103;28;1906;-78
2022/04/25 05:35:15;;;;;;;;;;;;;;;21.42;27.98;97260.56;5077056;28;933;-78
2022/04/25 05:37:41;;;;;;;;;;;;;;;21.15;28.33;97264.75;5110340;28;836;-77
2022/04/25 05:40:06;;;;;;;;;;;;;;;21.03;28.52;97259.94;5077265;28;907;-78
2022/04/25 05:42:32;;;;;;;;;;;;;;;21.06;28.61;97250.53;5077412;28;910;-77
2022/04/25 05:44:58;;;;;;;;;;;;;;;21.65;27.51;97260.06;5078087;28;846;-78
2022/04/25 05:47:24;;;;;;;;;;;;;;;21.97;27.00;97256.00;5109706;28;938;-78
2022/04/25 05:52:33;;;;;;;;;;;;;;;21.16;28.33;97254.22;5077441;28;1901;-78
2022/04/25 05:54:59;;;;;;;;;;;;;;;20.98;28.45;97255.66;5109395;28;1156;-78
2022/04/25 05:57:25;;;;;;;;;;;;;;;21.01;28.51;97253.94;5076816;28;858;-78
2022/04/25 05:59:50;;;;;;;;;;;;;;;21.09;28.76;97255.28;5077334;28;1091;-78
2022/04/25 06:02:17;;;;;;;;;;;;;;;21.57;27.79;97264.44;5076630;28;817;-77
2022/04/25 06:04:42;;;;;;;;;;;;;;;21.98;27.32;97268.91;5076744;28;854;-79
2022/04/25 06:07:08;;;;;;;;;;;;;;;21.51;27.87;97260.63;5076415;28;1073;-78
2022/04/25 06:09:34;;;;;;;;;;;;;;;21.19;28.25;97271.09;5076548;28;1067;-78
2022/04/25 06:12:00;;;;;;;;;;;;;;;21.06;28.79;97261.84;5076609;28;941;-78
2022/04/25 06:14:25;;;;;;;;;;;;;;;21.00;28.77;97263.69;5076394;28;1914;-77
2022/04/25 06:16:51;;;;;;;;;;;;;;;20.91;29.07;97263.59;5076509;28;795;-78
2022/04/25 06:19:17;;;;;;;;;;;;;;;21.57;28.19;97264.44;5076632;28;893;-78
2022/04/25 06:21:42;;;;;;;;;;;;;;;21.89;27.45;97266.03;5076446;28;1161;-78
2022/04/25 06:24:08;;;;;;;;;;;;;;;21.41;28.18;97256.97;5076423;28;815;-77
2022/04/25 06:26:34;;;;;;;;;;;;;;;21.17;28.43;97250.94;5076110;28;815;-78
2022/04/25 06:28:59;;;;;;;;;;;;;;;21.14;28.77;97263.19;5076630;28;792;-78
2022/04/25 06:31:25;;;;;;;;;;;;;;;20.98;28.53;97261.31;5076185;28;847;-78
2022/04/25 06:33:50;;;;;;;;;;;;;;;21.17;28.66;97262.25;5107819;28;1905;-78
2022/04/25 06:36:16;;;;;;;;;;;;;;;21.72;28.02;97256.97;5076443;28;928;-78
2022/04/25 06:38:41;;;;;;;;;;;;;;;21.87;27.56;97267.75;5076046;28;974;-78
2022/04/25 06:41:07;;;;;;;;;;;;;;;21.26;28.25;97262.31;5076076;28;916;-78
2022/04/25 06:43:32;;;;;;;;;;;;;;;21.12;28.83;97262.84;5076042;28;931;-78
2022/04/25 06:45:58;;;;;;;;;;;;;;;21.03;28.91;97262.75;5075635;28;792;-78
2022/04/25 06:48:23;;;;;;;;;;;;;;;21.03;29.07;97260.72;5076080;28;910;-78
2022/04/25 06:50:49;;;;;;;;;;;;;;;21.58;28.32;97251.88;5075909;28;843;-78
2022/04/25 06:53:14;;;;;;;;;;;;;;;22.09;27.47;97260.75;5075696;28;1901;-78
2022/04/25 06:55:40;;;;;;;;;;;;;;;21.55;28.00;97253.59;5075925;28;820;-78
2022/04/25 06:58:06;;;;;;;;;;;;;;;21.09;29.04;97255.28;5075505;28;997;-78
2022/04/25 07:00:32;;;;;;;;;;;;;;;21.05;29.00;97257.44;5076125;28;871;-78
2022/04/25 07:02:57;;;;;;;;;;;;;;;21.07;28.99;97263.44;5075649;28;830;-78
2022/04/25 07:05:24;;;;;;;;;;;;;;;21.46;28.67;97252.75;5075840;28;943;-77
2022/04/25 07:07:49;;;;;;;;;;;;;;;21.96;27.86;97264.94;5075224;28;897;-78
2022/04/25 07:10:15;;;;;;;;;;;;;;;21.79;27.69;97267.22;5075967;28;916;-77
2022/04/25 07:12:41;;;;;;;;;;;;;;;21.27;28.80;97261.06;5106976;28;1909;-77
2022/04/25 07:15:07;;;;;;;;;;;;;;;20.99;29.13;97265.72;5075509;28;942;-78
2022/04/25 07:17:33;;;;;;;;;;;;;;;20.97;29.15;97256.91;5075538;28;889;-79
2022/04/25 07:19:58;;;;;;;;;;;;;;;21.12;29.18;97262.06;5106963;28;975;-78
2022/04/25 07:30:36;;;;;;;;;;;;;;;21.48;28.25;97250.22;5075194;28;878;-78
2022/04/25 07:33:01;;;;;;;;;;;;;;;21.21;29.02;97251.59;5107670;28;1976;-78
2022/04/25 07:35:27;;;;;;;;;;;;;;;21.05;29.29;97246.13;5075725;28;794;-78
2022/04/25 07:37:53;;;;;;;;;;;;;;;20.98;29.41;97249.19;5095274;28;1507;-78
2022/04/25 07:40:18;;;;;;;;;;;;;;;20.91;29.50;97247.44;5081941;28;929;-78
2022/04/25 07:42:43;;;;;;;;;;;;;;;21.36;29.02;97245.44;5081944;28;834;-78
2022/04/25 07:45:09;;;;;;;;;;;;;;;21.80;27.95;97246.94;5082079;28;1099;-78
2022/04/25 07:47:35;;;;;;;;;;;;;;;21.78;28.18;97238.13;5082190;28;889;-78
2022/04/25 07:50:00;;;;;;;;;;;;;;;21.32;28.84;97240.69;5081904;28;731;-78
2022/04/25 07:52:26;;;;;;;;;;;;;;;21.08;29.22;97237.50;5081952;28;1982;-78
2022/04/25 07:54:56;;;;;;;;;;;;;;;20.93;29.48;97241.31;5081863;28;918;-78
2022/04/25 07:57:21;;;;;;;;;;;;;;;21.23;29.34;97234.94;5082191;28;933;-78
2022/04/25 07:59:47;;;;;;;;;;;;;;;21.79;27.99;97228.38;5081773;28;882;-78
2022/04/25 08:02:13;;;;;;;;;;;;;;;22.14;27.63;97233.91;5082092;28;891;-78
2022/04/25 08:04:38;;;;;;;;;;;;;;;21.45;28.66;97237.00;5081773;28;941;-78
2022/04/25 08:07:04;;;;;;;;;;;;;;;21.20;29.01;97244.38;5081471;28;926;-78
2022/04/25 08:09:30;;;;;;;;;;;;;;;21.18;28.94;97235.53;5081402;28;955;-78
2022/04/25 08:20:21;;;;;;;;;;;;;;;21.39;28.79;97233.97;5079237;28;918;-77
2022/04/25 08:22:47;;;;;;;;;;;;;;;21.32;28.74;97225.75;5078931;28;1257;-77
2022/04/25 08:25:12;;;;;;;;;;;;;;;21.04;29.22;97230.41;5078874;28;1043;-78
2022/04/25 08:27:38;;;;;;;;;;;;;;;20.92;29.65;97232.03;5078916;28;956;-78
2022/04/25 08:30:04;;;;;;;;;;;;;;;20.97;29.25;97225.78;5045264;28;1022;-78
2022/04/25 08:32:32;;;;;;;;;;;;;;;21.29;28.96;97215.31;5061864;28;1965;-79
2022/04/25 08:34:58;;;;;;;;;;;;;;;21.88;27.88;97226.84;5079129;28;968;-78
2022/04/25 08:37:23;;;;;;;;;;;;;;;22.09;27.68;97223.94;5079386;28;1083;-78
2022/04/25 08:39:49;;;;;;;;;;;;;;;22.14;27.56;97225.41;5079616;28;879;-78
2022/04/25 08:42:14;;;;;;;;;;;;;;;21.43;28.67;97222.53;5079088;28;1005;-78
2022/04/25 08:44:40;;;;;;;;;;;;;;;21.26;28.84;97230.41;5079303;28;938;-78
2022/04/25 08:47:05;;;;;;;;;;;;;;;21.05;29.53;97232.00;5038537;28;1079;-78
2022/04/25 08:49:31;;;;;;;;;;;;;;;21.02;29.60;97238.56;5037534;28;990;-78
2022/04/25 08:51:59;;;;;;;;;;;;;;;21.04;29.44;97244.56;5055532;28;988;-78
2022/04/25 08:54:26;;;;;;;;;;;;;;;20.89;29.89;97244.28;5055754;28;1914;-78
2022/04/25 08:56:51;;;;;;;;;;;;;;;21.68;28.36;97245.00;5055507;28;988;-78
2022/04/25 08:59:17;;;;;;;;;;;;;;;22.09;28.01;97240.94;5055683;28;928;-78
2022/04/25 09:01:42;;;;;;;;;;;;;;;21.38;28.71;97238.06;5055749;28;968;-77
2022/04/25 09:04:07;;;;;;;;;;;;;;;21.19;29.31;97242.78;5055394;28;1209;-78
2022/04/25 09:06:33;;;;;;;;;;;;;;;21.19;29.12;97244.81;5055954;28;963;-78
2022/04/25 09:08:59;;;;;;;;;;;;;;;21.04;29.26;97236.06;5055624;28;991;-78
2022/04/25 09:14:10;;;;;;;;;;;;;;;21.78;28.53;97229.63;5038345;28;1992;-77
2022/04/25 09:16:37;;;;;;;;;;;;;;;22.06;27.99;97232.56;5052258;28;898;-76
2022/04/25 09:19:02;;;;;;;;;;;;;;;21.50;28.72;97234.38;5073879;28;896;-77
2022/04/25 09:21:28;;;;;;;;;;;;;;;21.25;28.97;97229.63;5110457;28;1078;-78
2022/04/25 09:23:53;;;;;;;;;;;;;;;21.09;29.50;97221.34;5110101;28;1055;-78
2022/04/25 09:26:21;;;;;;;;;;;;;;;20.94;29.86;97211.81;5109810;28;917;-78
2022/04/25 09:28:47;;;;;;;;;;;;;;;20.88;29.86;97213.63;5054664;28;922;-78
2022/04/25 09:31:13;;;;;;;;;;;;;;;21.67;28.52;97220.78;5054897;28;877;-79
2022/04/25 09:33:39;;;;;;;;;;;;;;;22.00;28.23;97208.94;5054573;28;1906;-78
2022/04/25 09:36:06;;;;;;;;;;;;;;;21.56;28.83;97201.38;5054928;28;972;-78
2022/04/25 09:38:35;;;;;;;;;;;;;;;21.43;29.07;97209.16;5054851;28;955;-78
2022/04/25 09:41:00;;;;;;;;;;;;;;;21.26;29.38;97208.56;5055049;28;991;-78
2022/04/25 09:43:30;;;;;;;;;;;;;;;21.14;29.59;97200.94;5055065;28;1087;-78
2022/04/25 09:46:01;;;;;;;;;;;;;;;21.14;29.86;97189.63;5054859;28;890;-77
2022/04/25 09:48:27;;;;;;;;;;;;;;;21.84;28.30;97190.94;5054799;28;935;-78
2022/04/25 09:51:08;;;;;;;;;;;;;;;21.81;28.11;97194.72;5054559;28;942;-78
2022/04/25 09:53:47;;;;;;;;;;;;;;;21.32;29.33;97197.47;5054322;28;1969;-77
2022/04/25 09:56:22;;;;;;;;;;;;;;;21.17;29.30;97191.53;5054516;28;922;-78
2022/04/25 09:59:05;;;;;;;;;;;;;;;21.11;29.51;97190.53;5056760;28;1025;-78
2022/04/25 10:01:30;;;;;;;;;;;;;;;20.99;29.63;97195.03;5108808;28;839;-78
2022/04/25 10:03:56;;;;;;;;;;;;;;;21.06;29.54;97189.09;5109124;28;871;-78
2022/04/25 10:06:22;;;;;;;;;;;;;;;21.17;29.83;97194.34;5114820;28;998;-78
2022/04/25 10:08:47;;;;;;;;;;;;;;;21.74;28.58;97186.50;5074495;28;942;-78
2022/04/25 10:11:13;;;;;;;;;;;;;;;22.01;28.19;97187.84;5057511;28;826;-78
2022/04/25 10:13:38;;;;;;;;;;;;;;;21.49;28.98;97192.38;5072728;28;1992;-77
2022/04/25 10:16:04;;;;;;;;;;;;;;;21.23;29.12;97203.81;5037615;28;1217;-78
2022/04/25 10:18:32;;;;;;;;;;;;;;;21.04;29.34;97196.47;5053805;28;1024;-78
2022/04/25 10:20:59;;;;;;;;;;;;;;;21.16;29.23;97198.44;5054465;28;1190;-78
2022/04/25 10:23:25;;;;;;;;;;;;;;;20.95;29.42;97190.75;5053851;28;1063;-77
2022/04/25 10:25:51;;;;;;;;;;;;;;;20.95;29.57;97197.19;5054102;28;1023;-78
2022/04/25 10:28:52;;;;;;;;;;;;;;;20.89;29.83;97190.56;5037512;28;958;-78
2022/04/25 10:31:21;;;;;;;;;;;;;;;21.49;29.18;97198.03;4994360;28;929;-77
2022/04/25 10:33:48;;;;;;;;;;;;;;;21.88;28.17;97204.97;4961978;28;1914;-78
2022/04/25 10:36:32;;;;;;;;;;;;;;;21.66;28.72;97207.06;4994233;28;971;-78
2022/04/25 10:39:09;;;;;;;;;;;;;;;21.25;29.14;97195.66;4974930;28;901;-78
2022/04/25 10:44:18;;;;;;;;;;;;;;;20.86;30.10;97196.31;4974833;28;1024;-78
2022/04/25 10:47:02;;;;;;;;;;;;;;;20.85;29.95;97189.09;4988419;28;994;-77
2022/04/25 10:49:30;;;;;;;;;;;;;;;21.48;29.02;97185.13;4994482;28;880;-78
2022/04/25 10:51:56;;;;;;;;;;;;;;;22.01;27.97;97182.19;5010116;28;959;-78
2022/04/25 10:54:23;;;;;;;;;;;;;;;21.50;28.71;97199.59;5010633;28;1891;-77
2022/04/25 10:57:07;;;;;;;;;;;;;;;21.36;29.02;97192.47;4977786;28;957;-78
2022/04/25 10:59:32;;;;;;;;;;;;;;;21.01;29.56;97186.06;4993997;28;1199;-78
2022/04/25 11:01:58;;;;;;;;;;;;;;;21.02;29.60;97198.97;5013243;28;929;-78
2022/04/25 11:04:23;;;;;;;;;;;;;;;20.81;29.89;97186.41;5024054;28;970;-78
2022/04/25 11:07:09;;;;;;;;;;;;;;;21.62;28.79;97184.56;5076647;28;1028;-78
2022/04/25 11:09:40;;;;;;;;;;;;;;;21.96;28.10;97179.97;5093297;28;937;-78
2022/04/25 11:12:05;;;;;;;;;;;;;;;21.42;29.01;97187.00;5092706;28;792;-78
2022/04/25 11:14:31;;;;;;;;;;;;;;;21.26;29.38;97185.94;5093368;28;1913;-78
2022/04/25 11:17:06;;;;;;;;;;;;;;;21.12;29.37;97186.47;5093318;28;920;-78
2022/04/25 11:19:51;;;;;;;;;;;;;;;20.98;29.61;97181.31;5093131;28;1044;-78
2022/04/25 11:22:34;;;;;;;;;;;;;;;20.90;30.17;97191.34;5093359;28;1239;-78
2022/04/25 11:25:18;;;;;;;;;;;;;;;21.70;28.89;97185.84;5093409;28;929;-78
2022/04/25 11:28:02;;;;;;;;;;;;;;;21.97;28.04;97175.91;5093127;28;1023;-78
2022/04/25 11:30:29;;;;;;;;;;;;;;;21.40;29.05;97183.81;5093259;28;885;-78
2022/04/25 11:33:00;;;;;;;;;;;;;;;21.31;29.04;97176.88;5074934;28;1967;-78
2022/04/25 11:35:26;;;;;;;;;;;;;;;21.10;29.59;97165.56;5055413;28;852;-78
2022/04/25 11:37:51;;;;;;;;;;;;;;;21.16;29.51;97169.38;5052975;28;968;-78
2022/04/25 11:40:17;;;;;;;;;;;;;;;20.97;29.66;97159.97;5055131;28;834;-76
2022/04/25 11:42:42;;;;;;;;;;;;;;;21.44;29.12;97162.63;5055071;28;774;-77
2022/04/25 11:45:08;;;;;;;;;;;;;;;21.99;28.15;97168.50;5055578;28;819;-77
2022/04/25 11:47:33;;;;;;;;;;;;;;;21.90;28.01;97171.31;5054829;28;891;-77
2022/04/25 11:50:03;;;;;;;;;;;;;;;21.37;29.24;97171.41;5037121;28;1341;-77
2022/04/25 11:52:29;;;;;;;;;;;;;;;21.11;29.71;97167.13;5053741;28;2243;-78
2022/04/25 11:54:55;;;;;;;;;;;;;;;20.92;30.08;97166.22;5032824;28;905;-78
2022/04/25 11:57:21;;;;;;;;;;;;;;;21.03;29.62;97158.91;5032462;28;926;-78
2022/04/25 11:59:46;;;;;;;;;;;;;;;21.10;29.59;97169.16;5032709;28;850;-78
2022/04/25 12:02:12;;;;;;;;;;;;;;;21.71;28.63;97170.47;5032742;28;866;-77
2022/04/25 12:04:38;;;;;;;;;;;;;;;21.95;28.26;97155.75;5032454;28;812;-78
2022/04/25 12:07:07;;;;;;;;;;;;;;;21.51;28.98;97155.91;5032621;28;1033;-77
2022/04/25 12:18:02;;;;;;;;;;;;;;;21.10;29.72;97169.16;5012548;28;1011;-77
2022/04/25 12:20:29;;;;;;;;;;;;;;;21.08;29.58;97161.13;5012570;28;972;-77
2022/04/25 12:22:57;;;;;;;;;;;;;;;21.53;29.38;97159.84;5012506;28;1160;-78
2022/04/25 12:25:24;;;;;;;;;;;;;;;21.91;28.33;97149.44;4999262;28;992;-78
2022/04/25 12:28:05;;;;;;;;;;;;;;;21.74;28.49;97155.34;5000520;28;953;-77
2022/04/25 12:30:46;;;;;;;;;;;;;;;21.36;29.03;97149.22;5016881;28;862;-77
2022/04/25 12:33:13;;;;;;;;;;;;;;;21.27;29.40;97142.22;5016246;28;1906;-78
2022/04/25 12:35:38;;;;;;;;;;;;;;;21.20;29.47;97145.34;5015884;28;1045;-77
2022/04/25 12:38:04;;;;;;;;;;;;;;;21.14;29.49;97150.03;5016160;28;869;-77
2022/04/25 12:40:30;;;;;;;;;;;;;;;21.06;29.61;97154.38;5016204;28;991;-78
2022/04/25 12:42:56;;;;;;;;;;;;;;;21.17;29.71;97151.13;5007063;28;910;-78
2022/04/25 12:45:22;;;;;;;;;;;;;;;21.65;29.05;97149.66;5021841;28;1128;-78
2022/04/25 12:47:57;;;;;;;;;;;;;;;21.97;28.47;97153.25;5035687;28;992;-77
2022/04/25 12:50:44;;;;;;;;;;;;;;;21.37;29.28;97151.59;5035995;28;958;-77
2022/04/25 12:53:10;;;;;;;;;;;;;;;21.21;29.61;97149.75;5035616;28;1910;-77
2022/04/25 12:55:45;;;;;;;;;;;;;;;21.09;29.61;97153.47;5035528;28;949;-77
2022/04/25 12:58:10;;;;;;;;;;;;;;;20.89;30.15;97155.84;5035377;28;951;-78
2022/04/25 13:00:42;;;;;;;;;;;;;;;21.03;29.85;97146.78;5048021;28;884;-77
2022/04/25 13:03:09;;;;;;;;;;;;;;;21.29;29.87;97148.19;5038817;28;959;-77
2022/04/25 13:05:34;;;;;;;;;;;;;;;21.75;28.79;97147.66;5055528;28;992;-77
2022/04/25 13:08:00;;;;;;;;;;;;;;;22.02;28.50;97142.09;5058283;28;851;-78
2022/04/25 13:10:25;;;;;;;;;;;;;;;21.42;29.20;97153.03;5058052;28;889;-78
2022/04/25 13:12:54;;;;;;;;;;;;;;;21.14;29.69;97150.03;5057532;28;1979;-78
2022/04/25 13:15:20;;;;;;;;;;;;;;;21.15;29.78;97157.25;5057823;28;873;-78
2022/04/25 13:17:46;;;;;;;;;;;;;;;21.09;29.57;97159.13;5057734;28;844;-78
2022/04/25 13:20:13;;;;;;;;;;;;;;;21.07;29.80;97161.59;5057939;28;1116;-78
2022/04/25 13:22:38;;;;;;;;;;;;;;;20.96;30.12;97155.56;5058070;28;1052;-77
2022/04/25 13:25:04;;;;;;;;;;;;;;;20.99;30.05;97165.97;5056523;28;1574;-78
2022/04/25 13:27:30;;;;;;;;;;;;;;;21.13;30.04;97154.09;5056259;28;959;-78
2022/04/25 13:29:56;;;;;;;;;;;;;;;21.70;28.95;97174.53;5089746;28;941;-77
2022/04/25 13:32:21;;;;;;;;;;;;;;;22.05;28.31;97177.16;5057843;28;756;-78
2022/04/25 13:34:46;;;;;;;;;;;;;;;21.63;28.90;97174.81;5057103;28;1906;-78
2022/04/25 13:37:13;;;;;;;;;;;;;;;21.20;29.43;97176.47;5057624;28;917;-77
2022/04/25 13:39:38;;;;;;;;;;;;;;;21.13;29.69;97176.72;5071411;28;961;-78
2022/04/25 13:42:04;;;;;;;;;;;;;;;20.97;29.87;97168.44;5054867;28;916;-78